Wetterdaten: Woche 23.11.09 - 29.11.09 (KW48)
Datum Zeit Temperatur Luftfeuchte Luftdruck Niederschlag Windrichtung Wind
23.11.2009 00:00 7,0 C 87 % 1016,4 hPa 0,0 l/m W-SW 14,9 km/h (3 Bft)
23.11.2009 01:00 7,7 C 87 % 1016,3 hPa 0,0 l/m W-SW 18,1 km/h (3 Bft)
23.11.2009 02:00 8,1 C 87 % 1016,2 hPa 0,0 l/m W-SW 28,2 km/h (4 Bft)
23.11.2009 03:00 7,7 C 86 % 1016,2 hPa 0,0 l/m W-SW 32,4 km/h (5 Bft)
23.11.2009 04:00 7,5 C 79 % 1016,4 hPa 0,0 l/m W 36,1 km/h (5 Bft)
23.11.2009 05:00 6,8 C 81 % 1016,6 hPa 0,0 l/m W-SW 26,4 km/h (4 Bft)
23.11.2009 06:00 6,6 C 81 % 1016,8 hPa 0,0 l/m W-SW 24,4 km/h (4 Bft)
23.11.2009 07:00 6,7 C 80 % 1017,2 hPa 0,0 l/m SW 17,6 km/h (3 Bft)
23.11.2009 08:00 5,8 C 86 % 1017,2 hPa 0,0 l/m S-SW 12,8 km/h (3 Bft)
23.11.2009 09:00 7,5 C 79 % 1016,9 hPa 0,2 l/m W-SW 32,5 km/h (5 Bft)
23.11.2009 10:00 9,6 C 71 % 1016,9 hPa 0,0 l/m W-SW 36,5 km/h (5 Bft)
23.11.2009 11:00 10,7 C 68 % 1017,1 hPa 0,0 l/m W-SW 34,7 km/h (5 Bft)
23.11.2009 12:00 10,2 C 70 % 1016,3 hPa 0,0 l/m W-SW 40,4 km/h (6 Bft)
23.11.2009 13:00 10,7 C 67 % 1015,4 hPa 0,0 l/m SW 38,6 km/h (5 Bft)
23.11.2009 14:00 11,1 C 66 % 1014,8 hPa 0,0 l/m W-SW 36,2 km/h (5 Bft)
23.11.2009 15:00 10,9 C 66 % 1014,7 hPa 0,0 l/m W-SW 42,0 km/h (6 Bft)
23.11.2009 16:00 10,4 C 69 % 1014,6 hPa 0,0 l/m W-SW 41,0 km/h (6 Bft)
23.11.2009 17:00 10,1 C 73 % 1014,5 hPa 0,0 l/m W-SW 38,6 km/h (5 Bft)
23.11.2009 18:00 10,0 C 74 % 1014,2 hPa 0,0 l/m W 35,0 km/h (5 Bft)
23.11.2009 19:00 10,2 C 73 % 1013,4 hPa 0,0 l/m SW 42,9 km/h (6 Bft)
23.11.2009 20:00 10,4 C 72 % 1013,1 hPa 0,0 l/m W-SW 44,9 km/h (6 Bft)
23.11.2009 21:00 10,5 C 72 % 1013,1 hPa 0,0 l/m W-SW 42,4 km/h (6 Bft)
23.11.2009 22:00 10,2 C 76 % 1013,1 hPa 0,0 l/m SW 39,4 km/h (6 Bft)
23.11.2009 23:00 9,4 C 82 % 1013,1 hPa 0,2 l/m W-SW 46,5 km/h (6 Bft)
24.11.2009 00:00 9,2 C 83 % 1013,3 hPa 0,0 l/m W-SW 43,6 km/h (6 Bft)
24.11.2009 01:00 9,0 C 83 % 1013,4 hPa 0,0 l/m W-SW 43,3 km/h (6 Bft)
24.11.2009 02:00 8,8 C 85 % 1013,5 hPa 0,0 l/m SW 38,4 km/h (5 Bft)
24.11.2009 03:00 8,6 C 87 % 1013,7 hPa 0,0 l/m W-SW 38,5 km/h (5 Bft)
24.11.2009 04:00 8,6 C 89 % 1014,1 hPa 0,0 l/m W-SW 39,5 km/h (6 Bft)
24.11.2009 05:00 8,6 C 89 % 1014,6 hPa 0,0 l/m W 35,0 km/h (5 Bft)
24.11.2009 06:00 8,5 C 90 % 1015,0 hPa 0,2 l/m W-SW 30,3 km/h (5 Bft)
24.11.2009 07:00 8,4 C 92 % 1015,9 hPa 0,2 l/m W-SW 28,7 km/h (4 Bft)
24.11.2009 08:00 8,4 C 94 % 1016,3 hPa 0,0 l/m SW 22,0 km/h (4 Bft)
24.11.2009 09:00 8,9 C 94 % 1016,9 hPa 0,2 l/m W-SW 27,6 km/h (4 Bft)
24.11.2009 10:00 9,3 C 93 % 1017,2 hPa 0,0 l/m W-SW 37,3 km/h (5 Bft)
24.11.2009 11:00 9,6 C 93 % 1017,7 hPa 0,2 l/m W-SW 36,5 km/h (5 Bft)
24.11.2009 12:00 9,8 C 92 % 1017,8 hPa 0,0 l/m W-SW 36,1 km/h (5 Bft)
24.11.2009 13:00 10,2 C 91 % 1017,7 hPa 0,0 l/m W 31,9 km/h (5 Bft)
24.11.2009 14:00 10,6 C 90 % 1018,2 hPa 0,0 l/m W-SW 28,8 km/h (5 Bft)
24.11.2009 15:00 10,3 C 92 % 1018,6 hPa 0,0 l/m W 26,7 km/h (4 Bft)
24.11.2009 16:00 10,1 C 91 % 1018,8 hPa 0,0 l/m SW 23,2 km/h (4 Bft)
24.11.2009 17:00 10,0 C 89 % 1019,2 hPa 0,0 l/m W-SW 25,3 km/h (4 Bft)
24.11.2009 18:00 10,2 C 86 % 1019,5 hPa 0,0 l/m W-SW 28,3 km/h (4 Bft)
24.11.2009 19:00 10,2 C 85 % 1019,7 hPa 0,0 l/m SW 21,6 km/h (4 Bft)
24.11.2009 20:00 9,9 C 86 % 1019,5 hPa 0,0 l/m SW 16,2 km/h (3 Bft)
24.11.2009 21:00 9,7 C 84 % 1019,6 hPa 0,0 l/m W-SW 20,5 km/h (4 Bft)
24.11.2009 22:00 9,0 C 86 % 1019,1 hPa 0,0 l/m SW 15,2 km/h (3 Bft)
24.11.2009 23:00 8,2 C 88 % 1018,8 hPa 0,0 l/m SW 9,0 km/h (2 Bft)
25.11.2009 00:00 7,5 C 89 % 1018,5 hPa 0,0 l/m SW 12,1 km/h (2 Bft)
25.11.2009 01:00 7,4 C 88 % 1018,2 hPa 0,0 l/m S-SW 9,3 km/h (2 Bft)
25.11.2009 02:00 6,5 C 88 % 1018,1 hPa 0,0 l/m SW 6,2 km/h (2 Bft)
25.11.2009 03:00 6,0 C 90 % 1017,2 hPa 0,0 l/m W-SW 9,1 km/h (2 Bft)
25.11.2009 04:00 6,1 C 89 % 1016,7 hPa 0,0 l/m SW 6,2 km/h (2 Bft)
25.11.2009 05:00 5,0 C 93 % 1016,3 hPa 0,0 l/m O 4,0 km/h (1 Bft)
25.11.2009 06:00 4,7 C 94 % 1015,9 hPa 0,0 l/m O 2,7 km/h (1 Bft)
25.11.2009 07:00 3,7 C 93 % 1015,6 hPa 0,0 l/m N 2,0 km/h (1 Bft)
25.11.2009 08:00 3,0 C 95 % 1015,6 hPa 0,0 l/m O 0,9 km/h (0 Bft)
25.11.2009 09:00 4,5 C 97 % 1015,4 hPa 0,0 l/m S-SW 7,5 km/h (2 Bft)
25.11.2009 10:00 8,8 C 84 % 1015,4 hPa 0,0 l/m SW 18,0 km/h (3 Bft)
25.11.2009 11:00 11,2 C 70 % 1015,0 hPa 0,0 l/m SW 23,9 km/h (4 Bft)
25.11.2009 12:00 12,0 C 65 % 1014,0 hPa 0,0 l/m SW 22,7 km/h (4 Bft)
25.11.2009 13:00 12,5 C 67 % 1013,0 hPa 0,0 l/m SW 15,6 km/h (3 Bft)
25.11.2009 14:00 12,9 C 63 % 1011,9 hPa 0,0 l/m SW 10,7 km/h (2 Bft)
25.11.2009 15:00 11,5 C 67 % 1011,2 hPa 0,0 l/m SW 7,2 km/h (2 Bft)
25.11.2009 16:00 9,6 C 74 % 1010,6 hPa 0,0 l/m SW 2,4 km/h (1 Bft)
25.11.2009 17:00 7,2 C 83 % 1010,7 hPa 0,0 l/m N 1,6 km/h (1 Bft)
25.11.2009 18:00 6,4 C 85 % 1011,2 hPa 0,0 l/m N 2,9 km/h (1 Bft)
25.11.2009 19:00 5,3 C 89 % 1011,5 hPa 0,0 l/m SW 3,3 km/h (1 Bft)
25.11.2009 20:00 6,1 C 90 % 1011,9 hPa 0,0 l/m SW 10,3 km/h (2 Bft)
25.11.2009 21:00 7,4 C 77 % 1012,6 hPa 0,0 l/m SW 10,5 km/h (2 Bft)
25.11.2009 22:00 5,8 C 85 % 1012,7 hPa 0,0 l/m S-SW 12,2 km/h (2 Bft)
25.11.2009 23:00 4,8 C 91 % 1013,2 hPa 0,0 l/m S-SW 10,7 km/h (2 Bft)
26.11.2009 00:00 4,9 C 91 % 1013,2 hPa 0,0 l/m SW 9,5 km/h (2 Bft)
26.11.2009 01:00 6,0 C 89 % 1013,6 hPa 0,0 l/m SW 15,0 km/h (3 Bft)
26.11.2009 02:00 7,6 C 84 % 1014,1 hPa 0,0 l/m W-SW 15,7 km/h (3 Bft)
26.11.2009 03:00 8,2 C 83 % 1014,8 hPa 0,0 l/m W-SW 13,8 km/h (3 Bft)
26.11.2009 04:00 8,3 C 85 % 1015,1 hPa 0,2 l/m W-SW 11,3 km/h (2 Bft)
26.11.2009 05:00 7,9 C 86 % 1015,0 hPa 0,0 l/m W 19,4 km/h (3 Bft)
26.11.2009 06:00 7,7 C 87 % 1015,1 hPa 0,0 l/m W-SW 13,4 km/h (3 Bft)
26.11.2009 07:00 7,5 C 87 % 1015,0 hPa 0,0 l/m W-SW 13,3 km/h (3 Bft)
26.11.2009 08:00 7,6 C 88 % 1015,4 hPa 0,0 l/m SW 12,3 km/h (3 Bft)
26.11.2009 09:00 7,6 C 91 % 1015,7 hPa 0,0 l/m SW 9,0 km/h (2 Bft)
26.11.2009 10:00 7,9 C 88 % 1016,0 hPa 0,0 l/m SW 10,5 km/h (2 Bft)
26.11.2009 11:00 8,7 C 82 % 1015,7 hPa 0,0 l/m SW 14,1 km/h (3 Bft)
26.11.2009 12:00 8,8 C 75 % 1015,5 hPa 0,0 l/m W-SW 20,9 km/h (4 Bft)
26.11.2009 13:00 9,0 C 73 % 1015,0 hPa 0,0 l/m W-SW 17,3 km/h (3 Bft)
26.11.2009 14:00 9,1 C 72 % 1014,7 hPa 0,0 l/m SW 19,3 km/h (3 Bft)
26.11.2009 15:00 8,3 C 78 % 1014,6 hPa 0,0 l/m SW 13,6 km/h (3 Bft)
26.11.2009 16:00 6,9 C 86 % 1014,8 hPa 0,0 l/m SW 10,2 km/h (2 Bft)
26.11.2009 17:00 5,9 C 90 % 1014,8 hPa 0,0 l/m W-SW 13,0 km/h (3 Bft)
26.11.2009 18:00 5,7 C 90 % 1014,6 hPa 0,0 l/m W-SW 14,8 km/h (3 Bft)
26.11.2009 19:00 6,1 C 90 % 1014,5 hPa 0,0 l/m W-SW 13,7 km/h (3 Bft)
26.11.2009 20:00 6,1 C 90 % 1014,3 hPa 0,0 l/m W-SW 11,0 km/h (2 Bft)
26.11.2009 21:00 5,3 C 89 % 1014,3 hPa 0,0 l/m SW 2,7 km/h (1 Bft)
26.11.2009 22:00 3,4 C 89 % 1013,8 hPa 0,0 l/m N 0,3 km/h (0 Bft)
26.11.2009 23:00 2,2 C 93 % 1013,5 hPa 0,0 l/m N 0,4 km/h (0 Bft)
27.11.2009 00:00 1,2 C 94 % 1012,9 hPa 0,0 l/m N 0,9 km/h (0 Bft)
27.11.2009 01:00 0,5 C 94 % 1012,3 hPa 0,0 l/m N 0,1 km/h (0 Bft)
27.11.2009 02:00 -0,0 C 95 % 1011,9 hPa 0,0 l/m N 2,1 km/h (1 Bft)
27.11.2009 03:00 0,5 C 97 % 1011,4 hPa 0,0 l/m SW 3,2 km/h (1 Bft)
27.11.2009 04:00 2,2 C 98 % 1011,0 hPa 0,0 l/m W-SW 10,6 km/h (2 Bft)
27.11.2009 05:00 3,1 C 97 % 1010,8 hPa 0,2 l/m SW 8,6 km/h (2 Bft)
27.11.2009 06:00 2,8 C 96 % 1010,4 hPa 0,0 l/m SW 8,8 km/h (2 Bft)
27.11.2009 07:00 2,9 C 94 % 1010,3 hPa 0,0 l/m SW 17,8 km/h (3 Bft)
27.11.2009 08:00 5,5 C 82 % 1010,8 hPa 0,0 l/m W-SW 27,2 km/h (4 Bft)
27.11.2009 09:00 6,9 C 74 % 1010,9 hPa 0,0 l/m W-SW 33,1 km/h (5 Bft)
27.11.2009 10:00 8,2 C 69 % 1011,3 hPa 0,0 l/m W-SW 31,9 km/h (5 Bft)
27.11.2009 11:00 8,4 C 69 % 1011,3 hPa 0,0 l/m SW 27,8 km/h (4 Bft)
27.11.2009 12:00 9,0 C 67 % 1011,1 hPa 0,0 l/m W-SW 35,7 km/h (5 Bft)
27.11.2009 13:00 8,9 C 70 % 1010,4 hPa 0,0 l/m W-SW 26,6 km/h (4 Bft)
27.11.2009 14:00 9,2 C 70 % 1010,5 hPa 0,0 l/m W-SW 19,0 km/h (3 Bft)
27.11.2009 15:00 8,7 C 72 % 1011,2 hPa 0,0 l/m W-SW 27,6 km/h (4 Bft)
27.11.2009 16:00 7,6 C 79 % 1011,6 hPa 0,0 l/m W-SW 23,7 km/h (4 Bft)
27.11.2009 17:00 6,9 C 84 % 1011,9 hPa 0,0 l/m W-SW 17,2 km/h (3 Bft)
27.11.2009 18:00 6,2 C 87 % 1012,0 hPa 0,0 l/m SW 18,8 km/h (3 Bft)
27.11.2009 19:00 5,5 C 88 % 1012,1 hPa 0,0 l/m SW 18,2 km/h (3 Bft)
27.11.2009 20:00 5,1 C 86 % 1012,1 hPa 0,0 l/m SW 13,8 km/h (3 Bft)
27.11.2009 21:00 4,5 C 91 % 1012,3 hPa 0,0 l/m W 14,6 km/h (3 Bft)
27.11.2009 22:00 4,5 C 92 % 1012,3 hPa 0,0 l/m SW 13,7 km/h (3 Bft)
27.11.2009 23:00 3,8 C 93 % 1012,4 hPa 0,0 l/m SW 10,3 km/h (2 Bft)
28.11.2009 00:00 4,1 C 94 % 1012,3 hPa 0,0 l/m W-SW 13,2 km/h (3 Bft)
28.11.2009 01:00 4,7 C 91 % 1012,3 hPa 0,0 l/m SW 16,2 km/h (3 Bft)
28.11.2009 02:00 5,0 C 89 % 1012,2 hPa 0,0 l/m SW 15,8 km/h (3 Bft)
28.11.2009 03:00 4,7 C 89 % 1012,2 hPa 0,0 l/m SW 11,0 km/h (2 Bft)
28.11.2009 04:00 4,4 C 91 % 1011,9 hPa 0,0 l/m SW 8,0 km/h (2 Bft)
28.11.2009 05:00 3,9 C 93 % 1011,6 hPa 0,0 l/m W-SW 11,1 km/h (2 Bft)
28.11.2009 06:00 4,2 C 92 % 1011,8 hPa 0,0 l/m SW 10,3 km/h (2 Bft)
28.11.2009 07:00 3,9 C 91 % 1012,4 hPa 0,0 l/m SW 12,6 km/h (3 Bft)
28.11.2009 08:00 3,9 C 91 % 1012,8 hPa 0,0 l/m SW 16,4 km/h (3 Bft)
28.11.2009 09:00 4,9 C 89 % 1012,7 hPa 0,0 l/m SW 13,5 km/h (3 Bft)
28.11.2009 10:00 7,0 C 80 % 1012,6 hPa 0,0 l/m W-SW 24,3 km/h (4 Bft)
28.11.2009 11:00 8,2 C 71 % 1012,1 hPa 0,0 l/m SW 32,3 km/h (5 Bft)
28.11.2009 12:00 8,6 C 69 % 1011,2 hPa 0,0 l/m W-SW 28,4 km/h (4 Bft)
28.11.2009 13:00 9,4 C 62 % 1010,3 hPa 0,0 l/m W-SW 33,9 km/h (5 Bft)
28.11.2009 14:00 9,2 C 61 % 1009,9 hPa 0,0 l/m W-SW 26,8 km/h (4 Bft)
28.11.2009 15:00 8,7 C 64 % 1009,4 hPa 0,0 l/m W-SW 20,9 km/h (4 Bft)
28.11.2009 16:00 8,2 C 64 % 1009,2 hPa 0,0 l/m W-SW 20,9 km/h (4 Bft)
28.11.2009 17:00 6,5 C 72 % 1009,1 hPa 0,0 l/m W-SW 12,2 km/h (2 Bft)
28.11.2009 18:00 6,1 C 73 % 1009,0 hPa 0,0 l/m W-SW 16,9 km/h (3 Bft)
28.11.2009 19:00 6,0 C 72 % 1008,9 hPa 0,0 l/m SW 9,4 km/h (2 Bft)
28.11.2009 20:00 4,9 C 78 % 1008,5 hPa 0,0 l/m W-SW 10,9 km/h (2 Bft)
28.11.2009 21:00 5,4 C 75 % 1008,5 hPa 0,0 l/m W-SW 15,0 km/h (3 Bft)
28.11.2009 22:00 5,3 C 76 % 1008,1 hPa 0,0 l/m S-SW 7,5 km/h (2 Bft)
28.11.2009 23:00 4,4 C 79 % 1007,8 hPa 0,0 l/m S-SW 1,9 km/h (1 Bft)
29.11.2009 00:00 3,4 C 82 % 1007,2 hPa 0,0 l/m N 0,0 km/h (0 Bft)
29.11.2009 01:00 2,1 C 85 % 1006,5 hPa 0,0 l/m N 0,9 km/h (0 Bft)
29.11.2009 02:00 1,1 C 88 % 1006,0 hPa 0,0 l/m W 1,3 km/h (1 Bft)
29.11.2009 03:00 0,6 C 91 % 1005,3 hPa 0,0 l/m N 0,9 km/h (0 Bft)
29.11.2009 04:00 0,2 C 91 % 1005,1 hPa 0,0 l/m W 1,9 km/h (1 Bft)
29.11.2009 05:00 -0,1 C 93 % 1005,2 hPa 0,0 l/m N-NW 2,9 km/h (1 Bft)
29.11.2009 06:00 -0,4 C 92 % 1005,1 hPa 0,0 l/m N 0,1 km/h (0 Bft)
29.11.2009 07:00 -0,9 C 93 % 1005,0 hPa 0,0 l/m N 1,1 km/h (0 Bft)
29.11.2009 08:00 -1,2 C 94 % 1005,0 hPa 0,0 l/m N 1,2 km/h (1 Bft)
29.11.2009 09:00 -0,3 C 96 % 1004,6 hPa 0,0 l/m N 0,4 km/h (0 Bft)
29.11.2009 10:00 2,2 C 92 % 1004,2 hPa 0,0 l/m N-NW 1,6 km/h (1 Bft)
29.11.2009 11:00 4,6 C 83 % 1003,5 hPa 0,0 l/m N-NW 5,6 km/h (1 Bft)
29.11.2009 12:00 6,2 C 79 % 1002,5 hPa 0,0 l/m N-NW 6,7 km/h (2 Bft)
29.11.2009 13:00 7,0 C 80 % 1001,7 hPa 0,0 l/m N-NW 4,1 km/h (1 Bft)
29.11.2009 14:00 7,2 C 80 % 1000,9 hPa 0,0 l/m N-NW 3,1 km/h (1 Bft)
29.11.2009 15:00 7,1 C 79 % 1000,2 hPa 0,0 l/m N-NW 5,5 km/h (1 Bft)
29.11.2009 16:00 6,0 C 81 % 999,6 hPa 0,0 l/m N-NW 5,6 km/h (1 Bft)
29.11.2009 17:00 5,0 C 85 % 998,9 hPa 0,0 l/m N-NW 3,5 km/h (1 Bft)
29.11.2009 18:00 4,3 C 87 % 998,1 hPa 0,0 l/m N-NW 5,1 km/h (1 Bft)
29.11.2009 19:00 4,0 C 88 % 997,5 hPa 0,0 l/m N-NW 3,6 km/h (1 Bft)
29.11.2009 20:00 3,7 C 88 % 997,0 hPa 0,0 l/m N 2,3 km/h (1 Bft)
29.11.2009 21:00 3,2 C 89 % 996,5 hPa 0,0 l/m N 0,7 km/h (0 Bft)
29.11.2009 22:00 3,1 C 89 % 995,8 hPa 0,0 l/m N-NW 4,3 km/h (1 Bft)
29.11.2009 23:00 3,5 C 88 % 995,7 hPa 0,0 l/m N 11,4 km/h (2 Bft)
Min-Datum _ 29.11.09 25.11.09 29.11.09 - - 25.11.09
_ Min-Zeit 08:20 15:05 22:30 - - 06:55
Minimum _ -1,3 C 56 % 995,5 hPa - - 0,0 km/h (0 Bft)
Max-Datum _ 25.11.09 27.11.09 24.11.09 23.11.09 - 23.11.09
_ Max-Zeit 14:30 04:45 19:40 09:15 - 23:00
Maximum _ 13,2 C 99 % 1019,8 hPa 0,2 l/m - 59,5 km/h
W-SW (7 Bft)
Durchschnitt _ 6,7 C 84 % 1012,2 hPa #1,6 l/m W-SW 17,2 km/h (3 Bft)